sensor_id;sensor_type;location;lat;lon;timestamp;temperature;humidity
35445;DHT22;21562;49.476;6.086;2023-03-07T00:01:50;4.20;99.90
35445;DHT22;21562;49.476;6.086;2023-03-07T00:04:16;3.90;99.90
35445;DHT22;21562;49.476;6.086;2023-03-07T00:06:42;4.10;99.90
35445;DHT22;21562;49.476;6.086;2023-03-07T00:09:08;4.10;99.90
35445;DHT22;21562;49.476;6.086;2023-03-07T00:11:34;4.10;99.90
35445;DHT22;21562;49.476;6.086;2023-03-07T00:13:59;4.00;99.90
35445;DHT22;21562;49.476;6.086;2023-03-07T00:16:25;4.00;99.90
35445;DHT22;21562;49.476;6.086;2023-03-07T00:18:51;3.90;99.90
35445;DHT22;21562;49.476;6.086;2023-03-07T00:21:19;4.10;99.90
35445;DHT22;21562;49.476;6.086;2023-03-07T00:23:46;4.20;99.90
35445;DHT22;21562;49.476;6.086;2023-03-07T00:26:18;3.90;99.90
35445;DHT22;21562;49.476;6.086;2023-03-07T00:28:49;4.00;99.90
35445;DHT22;21562;49.476;6.086;2023-03-07T00:31:15;4.10;99.90
35445;DHT22;21562;49.476;6.086;2023-03-07T00:33:41;4.00;99.90
35445;DHT22;21562;49.476;6.086;2023-03-07T00:36:13;4.30;99.90
35445;DHT22;21562;49.476;6.086;2023-03-07T00:38:40;4.30;99.90
35445;DHT22;21562;49.476;6.086;2023-03-07T00:41:26;4.20;99.90
35445;DHT22;21562;49.476;6.086;2023-03-07T00:43:53;4.20;99.90
35445;DHT22;21562;49.476;6.086;2023-03-07T00:46:21;4.00;99.90
35445;DHT22;21562;49.476;6.086;2023-03-07T00:48:47;4.00;99.90
35445;DHT22;21562;49.476;6.086;2023-03-07T00:51:15;4.00;99.90
35445;DHT22;21562;49.476;6.086;2023-03-07T00:53:42;4.10;99.90
35445;DHT22;21562;49.476;6.086;2023-03-07T00:56:13;4.00;99.90
35445;DHT22;21562;49.476;6.086;2023-03-07T00:58:39;4.10;99.90
35445;DHT22;21562;49.476;6.086;2023-03-07T01:01:05;4.10;99.90
35445;DHT22;21562;49.476;6.086;2023-03-07T01:03:32;4.30;99.90
35445;DHT22;21562;49.476;6.086;2023-03-07T01:06:02;4.40;99.90
35445;DHT22;21562;49.476;6.086;2023-03-07T01:08:29;4.50;99.90
35445;DHT22;21562;49.476;6.086;2023-03-07T01:10:58;4.60;99.90
35445;DHT22;21562;49.476;6.086;2023-03-07T01:13:24;4.70;99.90
35445;DHT22;21562;49.476;6.086;2023-03-07T01:15:50;4.50;99.90
35445;DHT22;21562;49.476;6.086;2023-03-07T01:18:15;4.50;99.90
35445;DHT22;21562;49.476;6.086;2023-03-07T01:20:41;4.50;99.90
35445;DHT22;21562;49.476;6.086;2023-03-07T01:23:07;4.10;99.90
35445;DHT22;21562;49.476;6.086;2023-03-07T01:25:37;4.10;99.90
35445;DHT22;21562;49.476;6.086;2023-03-07T01:28:04;4.20;99.90
35445;DHT22;21562;49.476;6.086;2023-03-07T01:30:30;4.10;99.90
35445;DHT22;21562;49.476;6.086;2023-03-07T01:33:00;4.20;99.90
35445;DHT22;21562;49.476;6.086;2023-03-07T01:35:26;4.50;99.90
35445;DHT22;21562;49.476;6.086;2023-03-07T01:37:53;4.50;99.90
35445;DHT22;21562;49.476;6.086;2023-03-07T01:40:21;4.60;99.90
35445;DHT22;21562;49.476;6.086;2023-03-07T01:42:46;4.70;99.90
35445;DHT22;21562;49.476;6.086;2023-03-07T01:47:38;4.70;99.90
35445;DHT22;21562;49.476;6.086;2023-03-07T01:50:14;4.40;99.90
35445;DHT22;21562;49.476;6.086;2023-03-07T01:52:44;4.40;99.90
35445;DHT22;21562;49.476;6.086;2023-03-07T01:55:17;4.60;99.90
35445;DHT22;21562;49.476;6.086;2023-03-07T01:57:45;4.70;99.90
35445;DHT22;21562;49.476;6.086;2023-03-07T02:00:15;4.60;99.90
35445;DHT22;21562;49.476;6.086;2023-03-07T02:02:46;4.50;99.90
35445;DHT22;21562;49.476;6.086;2023-03-07T02:05:20;4.50;99.90
35445;DHT22;21562;49.476;6.086;2023-03-07T02:07:49;4.50;99.90
35445;DHT22;21562;49.476;6.086;2023-03-07T02:10:17;4.70;99.90
35445;DHT22;21562;49.476;6.086;2023-03-07T02:12:43;4.90;99.90
35445;DHT22;21562;49.476;6.086;2023-03-07T02:15:11;4.80;99.90
35445;DHT22;21562;49.476;6.086;2023-03-07T02:17:38;4.40;99.90
35445;DHT22;21562;49.476;6.086;2023-03-07T02:22:40;4.50;99.90
35445;DHT22;21562;49.476;6.086;2023-03-07T02:27:48;5.00;99.90
35445;DHT22;21562;49.476;6.086;2023-03-07T02:30:15;5.00;99.90
35445;DHT22;21562;49.476;6.086;2023-03-07T02:32:41;5.10;99.90
35445;DHT22;21562;49.476;6.086;2023-03-07T02:35:16;5.10;99.90
35445;DHT22;21562;49.476;6.086;2023-03-07T02:37:43;5.20;99.90
35445;DHT22;21562;49.476;6.086;2023-03-07T02:40:12;5.10;99.90
35445;DHT22;21562;49.476;6.086;2023-03-07T02:42:42;4.90;99.90
35445;DHT22;21562;49.476;6.086;2023-03-07T02:45:14;4.70;99.90
35445;DHT22;21562;49.476;6.086;2023-03-07T02:47:41;4.50;99.90
35445;DHT22;21562;49.476;6.086;2023-03-07T02:50:07;4.60;99.90
35445;DHT22;21562;49.476;6.086;2023-03-07T02:52:33;4.70;99.90
35445;DHT22;21562;49.476;6.086;2023-03-07T02:54:59;4.80;99.90
35445;DHT22;21562;49.476;6.086;2023-03-07T02:57:25;4.90;99.90
35445;DHT22;21562;49.476;6.086;2023-03-07T02:59:50;4.80;99.90
35445;DHT22;21562;49.476;6.086;2023-03-07T03:02:16;5.00;99.90
35445;DHT22;21562;49.476;6.086;2023-03-07T03:04:42;4.60;99.90
35445;DHT22;21562;49.476;6.086;2023-03-07T03:07:07;4.70;99.90
35445;DHT22;21562;49.476;6.086;2023-03-07T03:09:33;4.90;99.90
35445;DHT22;21562;49.476;6.086;2023-03-07T03:11:58;4.80;99.90
35445;DHT22;21562;49.476;6.086;2023-03-07T03:14:24;4.80;99.90
35445;DHT22;21562;49.476;6.086;2023-03-07T03:16:53;4.80;99.90
35445;DHT22;21562;49.476;6.086;2023-03-07T03:19:19;4.90;99.90
35445;DHT22;21562;49.476;6.086;2023-03-07T03:21:45;4.70;99.90
35445;DHT22;21562;49.476;6.086;2023-03-07T03:24:11;4.80;99.90
35445;DHT22;21562;49.476;6.086;2023-03-07T03:26:37;4.80;99.90
35445;DHT22;21562;49.476;6.086;2023-03-07T03:29:03;4.50;99.90
35445;DHT22;21562;49.476;6.086;2023-03-07T03:31:30;4.60;99.90
35445;DHT22;21562;49.476;6.086;2023-03-07T03:33:57;4.70;99.90
35445;DHT22;21562;49.476;6.086;2023-03-07T03:36:23;4.90;99.90
35445;DHT22;21562;49.476;6.086;2023-03-07T03:38:53;4.90;99.90
35445;DHT22;21562;49.476;6.086;2023-03-07T03:41:19;4.90;99.90
35445;DHT22;21562;49.476;6.086;2023-03-07T03:43:45;4.70;99.90
35445;DHT22;21562;49.476;6.086;2023-03-07T03:46:11;4.40;99.90
35445;DHT22;21562;49.476;6.086;2023-03-07T03:48:37;4.60;99.90
35445;DHT22;21562;49.476;6.086;2023-03-07T03:51:06;4.50;99.90
35445;DHT22;21562;49.476;6.086;2023-03-07T03:53:34;4.60;99.90
35445;DHT22;21562;49.476;6.086;2023-03-07T03:58:30;4.10;99.90
35445;DHT22;21562;49.476;6.086;2023-03-07T04:00:56;4.00;99.90
35445;DHT22;21562;49.476;6.086;2023-03-07T04:03:22;3.90;99.90
35445;DHT22;21562;49.476;6.086;2023-03-07T04:05:48;4.00;99.90
35445;DHT22;21562;49.476;6.086;2023-03-07T04:08:13;4.10;99.90
35445;DHT22;21562;49.476;6.086;2023-03-07T04:10:39;4.10;99.90
35445;DHT22;21562;49.476;6.086;2023-03-07T04:13:05;3.90;99.90
35445;DHT22;21562;49.476;6.086;2023-03-07T04:15:30;3.70;99.90
35445;DHT22;21562;49.476;6.086;2023-03-07T04:17:56;3.80;99.90
35445;DHT22;21562;49.476;6.086;2023-03-07T04:20:21;3.70;99.90
35445;DHT22;21562;49.476;6.086;2023-03-07T04:22:47;3.90;99.90
35445;DHT22;21562;49.476;6.086;2023-03-07T04:25:13;3.90;99.90
35445;DHT22;21562;49.476;6.086;2023-03-07T04:27:38;3.90;99.90
35445;DHT22;21562;49.476;6.086;2023-03-07T04:30:04;3.90;99.90
35445;DHT22;21562;49.476;6.086;2023-03-07T04:32:30;3.90;99.90
35445;DHT22;21562;49.476;6.086;2023-03-07T04:34:56;3.80;99.90
35445;DHT22;21562;49.476;6.086;2023-03-07T04:37:21;3.80;99.90
35445;DHT22;21562;49.476;6.086;2023-03-07T04:39:47;3.70;99.90
35445;DHT22;21562;49.476;6.086;2023-03-07T04:42:13;3.70;99.90
35445;DHT22;21562;49.476;6.086;2023-03-07T04:44:38;3.70;99.90
35445;DHT22;21562;49.476;6.086;2023-03-07T04:47:04;4.00;99.90
35445;DHT22;21562;49.476;6.086;2023-03-07T04:49:30;4.00;99.90
35445;DHT22;21562;49.476;6.086;2023-03-07T04:51:55;4.00;99.90
35445;DHT22;21562;49.476;6.086;2023-03-07T04:54:21;3.90;99.90
35445;DHT22;21562;49.476;6.086;2023-03-07T04:56:47;4.00;99.90
35445;DHT22;21562;49.476;6.086;2023-03-07T04:59:13;4.10;99.90
35445;DHT22;21562;49.476;6.086;2023-03-07T05:01:38;4.20;99.90
35445;DHT22;21562;49.476;6.086;2023-03-07T05:04:04;4.00;99.90
35445;DHT22;21562;49.476;6.086;2023-03-07T05:06:29;4.00;99.90
35445;DHT22;21562;49.476;6.086;2023-03-07T05:08:55;3.90;99.90
35445;DHT22;21562;49.476;6.086;2023-03-07T05:11:20;3.80;99.90
35445;DHT22;21562;49.476;6.086;2023-03-07T05:13:46;3.80;99.90
35445;DHT22;21562;49.476;6.086;2023-03-07T05:16:12;3.90;99.90
35445;DHT22;21562;49.476;6.086;2023-03-07T05:18:37;4.00;99.90
35445;DHT22;21562;49.476;6.086;2023-03-07T05:21:03;3.70;99.90
35445;DHT22;21562;49.476;6.086;2023-03-07T05:23:29;3.70;99.90
35445;DHT22;21562;49.476;6.086;2023-03-07T05:25:54;3.70;99.90
35445;DHT22;21562;49.476;6.086;2023-03-07T05:28:20;3.60;99.90
35445;DHT22;21562;49.476;6.086;2023-03-07T05:30:46;3.60;99.90
35445;DHT22;21562;49.476;6.086;2023-03-07T05:33:12;3.70;99.90
35445;DHT22;21562;49.476;6.086;2023-03-07T05:35:37;3.60;99.90
35445;DHT22;21562;49.476;6.086;2023-03-07T05:38:04;3.70;99.90
35445;DHT22;21562;49.476;6.086;2023-03-07T05:40:29;3.60;99.90
35445;DHT22;21562;49.476;6.086;2023-03-07T05:42:55;3.60;99.90
35445;DHT22;21562;49.476;6.086;2023-03-07T05:45:21;3.70;99.90
35445;DHT22;21562;49.476;6.086;2023-03-07T05:47:47;3.70;99.90
35445;DHT22;21562;49.476;6.086;2023-03-07T05:50:12;3.70;99.90
35445;DHT22;21562;49.476;6.086;2023-03-07T05:52:38;3.50;99.90
35445;DHT22;21562;49.476;6.086;2023-03-07T05:55:05;3.50;99.90
35445;DHT22;21562;49.476;6.086;2023-03-07T05:57:31;3.70;99.90
35445;DHT22;21562;49.476;6.086;2023-03-07T05:59:57;3.80;99.90
35445;DHT22;21562;49.476;6.086;2023-03-07T06:02:22;3.70;99.90
35445;DHT22;21562;49.476;6.086;2023-03-07T06:04:48;3.80;99.90
35445;DHT22;21562;49.476;6.086;2023-03-07T06:07:14;3.70;99.90
35445;DHT22;21562;49.476;6.086;2023-03-07T06:09:39;3.60;99.90
35445;DHT22;21562;49.476;6.086;2023-03-07T06:12:05;3.50;99.90
35445;DHT22;21562;49.476;6.086;2023-03-07T06:14:31;3.40;99.90
35445;DHT22;21562;49.476;6.086;2023-03-07T06:16:57;3.50;99.90
35445;DHT22;21562;49.476;6.086;2023-03-07T06:19:22;3.70;99.90
35445;DHT22;21562;49.476;6.086;2023-03-07T06:21:48;3.70;99.90
35445;DHT22;21562;49.476;6.086;2023-03-07T06:24:13;3.70;99.90
35445;DHT22;21562;49.476;6.086;2023-03-07T06:26:39;3.80;99.90
35445;DHT22;21562;49.476;6.086;2023-03-07T06:29:05;4.00;99.90
35445;DHT22;21562;49.476;6.086;2023-03-07T06:31:30;3.90;99.90
35445;DHT22;21562;49.476;6.086;2023-03-07T06:33:56;3.80;99.90
35445;DHT22;21562;49.476;6.086;2023-03-07T06:36:21;3.90;99.90
35445;DHT22;21562;49.476;6.086;2023-03-07T06:38:47;3.90;99.90
35445;DHT22;21562;49.476;6.086;2023-03-07T06:41:13;4.00;99.90
35445;DHT22;21562;49.476;6.086;2023-03-07T06:43:39;4.00;99.90
35445;DHT22;21562;49.476;6.086;2023-03-07T06:46:04;3.80;99.90
35445;DHT22;21562;49.476;6.086;2023-03-07T06:48:30;3.80;99.90
35445;DHT22;21562;49.476;6.086;2023-03-07T06:50:58;4.00;99.90
35445;DHT22;21562;49.476;6.086;2023-03-07T06:53:23;4.00;99.90
35445;DHT22;21562;49.476;6.086;2023-03-07T06:55:50;3.90;99.90
35445;DHT22;21562;49.476;6.086;2023-03-07T06:58:16;4.00;99.90
35445;DHT22;21562;49.476;6.086;2023-03-07T07:00:43;4.10;99.90
35445;DHT22;21562;49.476;6.086;2023-03-07T07:03:12;3.90;99.90
35445;DHT22;21562;49.476;6.086;2023-03-07T07:05:38;3.80;99.90
35445;DHT22;21562;49.476;6.086;2023-03-07T07:08:04;3.70;99.90
35445;DHT22;21562;49.476;6.086;2023-03-07T07:10:29;3.80;99.90
35445;DHT22;21562;49.476;6.086;2023-03-07T07:12:55;3.90;99.90
35445;DHT22;21562;49.476;6.086;2023-03-07T07:15:22;3.90;99.90
35445;DHT22;21562;49.476;6.086;2023-03-07T07:17:49;4.10;99.90
35445;DHT22;21562;49.476;6.086;2023-03-07T07:20:15;4.00;99.90
35445;DHT22;21562;49.476;6.086;2023-03-07T07:22:41;3.90;99.90
35445;DHT22;21562;49.476;6.086;2023-03-07T07:25:07;4.20;99.90
35445;DHT22;21562;49.476;6.086;2023-03-07T07:27:32;4.30;99.90
35445;DHT22;21562;49.476;6.086;2023-03-07T07:29:58;4.10;99.90
35445;DHT22;21562;49.476;6.086;2023-03-07T07:32:23;4.00;99.90
35445;DHT22;21562;49.476;6.086;2023-03-07T07:34:50;4.10;99.90
35445;DHT22;21562;49.476;6.086;2023-03-07T07:37:15;4.20;99.90
35445;DHT22;21562;49.476;6.086;2023-03-07T07:39:41;4.20;99.90
35445;DHT22;21562;49.476;6.086;2023-03-07T07:42:09;4.30;99.90
35445;DHT22;21562;49.476;6.086;2023-03-07T07:44:34;4.20;99.90
35445;DHT22;21562;49.476;6.086;2023-03-07T07:47:00;4.20;99.90
35445;DHT22;21562;49.476;6.086;2023-03-07T07:49:26;4.20;99.90
35445;DHT22;21562;49.476;6.086;2023-03-07T07:51:52;4.30;99.90
35445;DHT22;21562;49.476;6.086;2023-03-07T07:54:17;4.20;99.90
35445;DHT22;21562;49.476;6.086;2023-03-07T07:56:43;4.50;99.90
35445;DHT22;21562;49.476;6.086;2023-03-07T07:59:09;4.70;99.90
35445;DHT22;21562;49.476;6.086;2023-03-07T08:01:34;4.70;99.90
35445;DHT22;21562;49.476;6.086;2023-03-07T08:04:00;4.70;99.90
35445;DHT22;21562;49.476;6.086;2023-03-07T08:06:26;4.40;99.90
35445;DHT22;21562;49.476;6.086;2023-03-07T08:08:53;4.40;99.90
35445;DHT22;21562;49.476;6.086;2023-03-07T08:11:20;4.50;99.90
35445;DHT22;21562;49.476;6.086;2023-03-07T08:13:46;4.50;99.90
35445;DHT22;21562;49.476;6.086;2023-03-07T08:16:14;4.50;99.90
35445;DHT22;21562;49.476;6.086;2023-03-07T08:18:41;4.60;99.90
35445;DHT22;21562;49.476;6.086;2023-03-07T08:21:07;4.70;99.90
35445;DHT22;21562;49.476;6.086;2023-03-07T08:23:34;4.70;99.90
35445;DHT22;21562;49.476;6.086;2023-03-07T08:26:03;4.70;99.90
35445;DHT22;21562;49.476;6.086;2023-03-07T08:28:29;4.70;99.90
35445;DHT22;21562;49.476;6.086;2023-03-07T08:30:55;4.90;99.90
35445;DHT22;21562;49.476;6.086;2023-03-07T08:33:21;4.80;99.90
35445;DHT22;21562;49.476;6.086;2023-03-07T08:35:46;5.10;99.90
35445;DHT22;21562;49.476;6.086;2023-03-07T08:38:12;5.00;99.90
35445;DHT22;21562;49.476;6.086;2023-03-07T08:40:37;4.90;99.90
35445;DHT22;21562;49.476;6.086;2023-03-07T08:43:03;5.00;99.90
35445;DHT22;21562;49.476;6.086;2023-03-07T08:45:29;5.10;99.90
35445;DHT22;21562;49.476;6.086;2023-03-07T08:47:55;4.90;99.90
35445;DHT22;21562;49.476;6.086;2023-03-07T08:50:26;4.90;99.90
35445;DHT22;21562;49.476;6.086;2023-03-07T08:52:52;4.90;99.90
35445;DHT22;21562;49.476;6.086;2023-03-07T08:55:18;4.90;99.90
35445;DHT22;21562;49.476;6.086;2023-03-07T08:57:44;5.10;99.90
35445;DHT22;21562;49.476;6.086;2023-03-07T09:00:12;5.10;99.90
35445;DHT22;21562;49.476;6.086;2023-03-07T09:02:38;4.90;99.90
35445;DHT22;21562;49.476;6.086;2023-03-07T09:05:04;4.90;99.90
35445;DHT22;21562;49.476;6.086;2023-03-07T09:07:30;4.80;99.90
35445;DHT22;21562;49.476;6.086;2023-03-07T09:09:56;4.80;99.90
35445;DHT22;21562;49.476;6.086;2023-03-07T09:12:22;5.00;99.90
35445;DHT22;21562;49.476;6.086;2023-03-07T09:14:47;4.90;99.90
35445;DHT22;21562;49.476;6.086;2023-03-07T09:17:13;4.90;99.90
35445;DHT22;21562;49.476;6.086;2023-03-07T09:19:38;5.00;99.90
35445;DHT22;21562;49.476;6.086;2023-03-07T09:22:04;4.90;99.90
35445;DHT22;21562;49.476;6.086;2023-03-07T09:24:30;4.80;99.90
35445;DHT22;21562;49.476;6.086;2023-03-07T09:26:56;4.90;99.90
35445;DHT22;21562;49.476;6.086;2023-03-07T09:29:22;5.00;99.90
35445;DHT22;21562;49.476;6.086;2023-03-07T09:31:47;5.10;99.90
35445;DHT22;21562;49.476;6.086;2023-03-07T09:34:13;5.30;99.90
35445;DHT22;21562;49.476;6.086;2023-03-07T09:36:39;5.20;99.90
35445;DHT22;21562;49.476;6.086;2023-03-07T09:39:04;5.10;99.90
35445;DHT22;21562;49.476;6.086;2023-03-07T09:44:14;5.20;99.90
35445;DHT22;21562;49.476;6.086;2023-03-07T09:50:37;5.20;99.90
35445;DHT22;21562;49.476;6.086;2023-03-07T09:54:01;5.10;99.90
35445;DHT22;21562;49.476;6.086;2023-03-07T09:57:14;5.20;99.90
35445;DHT22;21562;49.476;6.086;2023-03-07T10:06:45;5.60;99.90
35445;DHT22;21562;49.476;6.086;2023-03-07T10:09:32;5.40;99.90
35445;DHT22;21562;49.476;6.086;2023-03-07T10:18:09;5.50;99.90
35445;DHT22;21562;49.476;6.086;2023-03-07T10:26:10;5.80;99.90
35445;DHT22;21562;49.476;6.086;2023-03-07T10:28:39;5.80;99.90
35445;DHT22;21562;49.476;6.086;2023-03-07T10:33:48;5.90;99.90
35445;DHT22;21562;49.476;6.086;2023-03-07T10:36:21;5.60;99.90
35445;DHT22;21562;49.476;6.086;2023-03-07T10:39:01;5.50;99.90
35445;DHT22;21562;49.476;6.086;2023-03-07T10:41:28;5.40;99.90
35445;DHT22;21562;49.476;6.086;2023-03-07T10:43:55;5.40;99.90
35445;DHT22;21562;49.476;6.086;2023-03-07T10:46:23;5.40;99.90
35445;DHT22;21562;49.476;6.086;2023-03-07T10:49:07;5.50;99.90
35445;DHT22;21562;49.476;6.086;2023-03-07T10:54:03;5.40;99.90
35445;DHT22;21562;49.476;6.086;2023-03-07T10:56:30;5.20;99.90
35445;DHT22;21562;49.476;6.086;2023-03-07T10:59:07;5.00;99.90
35445;DHT22;21562;49.476;6.086;2023-03-07T11:01:35;5.20;99.90
35445;DHT22;21562;49.476;6.086;2023-03-07T11:04:06;5.20;99.90
35445;DHT22;21562;49.476;6.086;2023-03-07T11:06:37;5.10;99.90
35445;DHT22;21562;49.476;6.086;2023-03-07T11:14:51;5.10;99.90
35445;DHT22;21562;49.476;6.086;2023-03-07T11:19:51;5.40;99.90
35445;DHT22;21562;49.476;6.086;2023-03-07T11:22:19;5.30;99.90
35445;DHT22;21562;49.476;6.086;2023-03-07T11:25:18;5.10;99.90
35445;DHT22;21562;49.476;6.086;2023-03-07T11:30:19;5.10;99.90
35445;DHT22;21562;49.476;6.086;2023-03-07T11:33:09;5.10;99.90
35445;DHT22;21562;49.476;6.086;2023-03-07T11:35:43;5.00;99.90
35445;DHT22;21562;49.476;6.086;2023-03-07T11:43:43;4.50;99.90
35445;DHT22;21562;49.476;6.086;2023-03-07T11:55:20;4.90;99.90
35445;DHT22;21562;49.476;6.086;2023-03-07T12:00:52;5.00;99.90
35445;DHT22;21562;49.476;6.086;2023-03-07T12:09:15;5.00;99.90
35445;DHT22;21562;49.476;6.086;2023-03-07T12:14:22;5.10;99.90
35445;DHT22;21562;49.476;6.086;2023-03-07T12:19:22;5.10;99.90
35445;DHT22;21562;49.476;6.086;2023-03-07T12:22:22;5.20;99.90
35445;DHT22;21562;49.476;6.086;2023-03-07T12:25:16;5.50;99.90
35445;DHT22;21562;49.476;6.086;2023-03-07T12:28:05;5.80;99.90
35445;DHT22;21562;49.476;6.086;2023-03-07T12:45:04;6.90;99.90
35445;DHT22;21562;49.476;6.086;2023-03-07T12:50:26;6.90;99.90
35445;DHT22;21562;49.476;6.086;2023-03-07T12:55:45;6.60;99.90
35445;DHT22;21562;49.476;6.086;2023-03-07T13:01:00;6.50;99.90
35445;DHT22;21562;49.476;6.086;2023-03-07T13:37:54;7.10;99.90
35445;DHT22;21562;49.476;6.086;2023-03-07T13:44:39;6.70;99.90
35445;DHT22;21562;49.476;6.086;2023-03-07T13:53:47;6.50;99.90
35445;DHT22;21562;49.476;6.086;2023-03-07T13:56:25;6.60;99.90
35445;DHT22;21562;49.476;6.086;2023-03-07T14:02:17;6.60;99.90
35445;DHT22;21562;49.476;6.086;2023-03-07T14:05:01;6.70;99.90
35445;DHT22;21562;49.476;6.086;2023-03-07T14:07:37;6.60;99.90
35445;DHT22;21562;49.476;6.086;2023-03-07T14:25:36;7.00;99.90
35445;DHT22;21562;49.476;6.086;2023-03-07T14:28:43;6.60;99.90
35445;DHT22;21562;49.476;6.086;2023-03-07T14:31:43;6.70;99.90
35445;DHT22;21562;49.476;6.086;2023-03-07T14:52:30;7.00;99.90
35445;DHT22;21562;49.476;6.086;2023-03-07T14:55:20;6.90;99.90
35445;DHT22;21562;49.476;6.086;2023-03-07T15:01:41;6.60;99.90
35445;DHT22;21562;49.476;6.086;2023-03-07T15:07:49;6.70;99.90
35445;DHT22;21562;49.476;6.086;2023-03-07T15:10:58;6.60;99.90
35445;DHT22;21562;49.476;6.086;2023-03-07T15:17:25;6.80;99.90
35445;DHT22;21562;49.476;6.086;2023-03-07T15:20:22;6.80;99.90
35445;DHT22;21562;49.476;6.086;2023-03-07T15:53:39;6.60;99.90
35445;DHT22;21562;49.476;6.086;2023-03-07T15:59:16;6.50;99.90
35445;DHT22;21562;49.476;6.086;2023-03-07T16:01:42;6.50;99.90
35445;DHT22;21562;49.476;6.086;2023-03-07T16:07:00;6.60;99.90
35445;DHT22;21562;49.476;6.086;2023-03-07T16:09:26;6.60;99.90
35445;DHT22;21562;49.476;6.086;2023-03-07T16:11:51;6.60;99.90
35445;DHT22;21562;49.476;6.086;2023-03-07T16:14:29;6.60;99.90
35445;DHT22;21562;49.476;6.086;2023-03-07T16:16:59;6.70;99.90
35445;DHT22;21562;49.476;6.086;2023-03-07T16:19:25;6.60;99.90
35445;DHT22;21562;49.476;6.086;2023-03-07T16:21:51;6.80;99.90
35445;DHT22;21562;49.476;6.086;2023-03-07T16:24:16;6.80;99.90
35445;DHT22;21562;49.476;6.086;2023-03-07T16:26:43;6.80;99.90
35445;DHT22;21562;49.476;6.086;2023-03-07T16:29:20;6.60;99.90
35445;DHT22;21562;49.476;6.086;2023-03-07T16:31:46;6.60;99.90
35445;DHT22;21562;49.476;6.086;2023-03-07T16:34:17;6.70;99.90
35445;DHT22;21562;49.476;6.086;2023-03-07T16:36:43;6.70;99.90
35445;DHT22;21562;49.476;6.086;2023-03-07T16:39:11;6.70;99.90
35445;DHT22;21562;49.476;6.086;2023-03-07T16:41:42;6.60;99.90
35445;DHT22;21562;49.476;6.086;2023-03-07T16:44:15;6.50;99.90
35445;DHT22;21562;49.476;6.086;2023-03-07T16:46:42;6.40;99.90
35445;DHT22;21562;49.476;6.086;2023-03-07T16:49:17;6.50;99.90
35445;DHT22;21562;49.476;6.086;2023-03-07T16:51:43;6.60;99.90
35445;DHT22;21562;49.476;6.086;2023-03-07T16:54:09;6.30;99.90
35445;DHT22;21562;49.476;6.086;2023-03-07T16:56:44;6.30;99.90
35445;DHT22;21562;49.476;6.086;2023-03-07T16:59:14;6.10;99.90
35445;DHT22;21562;49.476;6.086;2023-03-07T17:01:44;6.10;99.90
35445;DHT22;21562;49.476;6.086;2023-03-07T17:04:10;6.10;99.90
35445;DHT22;21562;49.476;6.086;2023-03-07T17:06:36;6.00;99.90
35445;DHT22;21562;49.476;6.086;2023-03-07T17:09:07;6.10;99.90
35445;DHT22;21562;49.476;6.086;2023-03-07T17:11:34;6.10;99.90
35445;DHT22;21562;49.476;6.086;2023-03-07T17:14:03;6.20;99.90
35445;DHT22;21562;49.476;6.086;2023-03-07T17:16:29;6.10;99.90
35445;DHT22;21562;49.476;6.086;2023-03-07T17:18:56;6.10;99.90
35445;DHT22;21562;49.476;6.086;2023-03-07T17:21:21;6.30;99.90
35445;DHT22;21562;49.476;6.086;2023-03-07T17:23:48;6.10;99.90
35445;DHT22;21562;49.476;6.086;2023-03-07T17:26:27;6.10;99.90
35445;DHT22;21562;49.476;6.086;2023-03-07T17:28:54;6.10;99.90
35445;DHT22;21562;49.476;6.086;2023-03-07T17:31:20;6.10;99.90
35445;DHT22;21562;49.476;6.086;2023-03-07T17:33:45;6.10;99.90
35445;DHT22;21562;49.476;6.086;2023-03-07T17:36:11;6.00;99.90
35445;DHT22;21562;49.476;6.086;2023-03-07T17:38:37;5.90;99.90
35445;DHT22;21562;49.476;6.086;2023-03-07T17:41:03;5.90;99.90
35445;DHT22;21562;49.476;6.086;2023-03-07T17:43:28;5.80;99.90
35445;DHT22;21562;49.476;6.086;2023-03-07T17:45:54;5.80;99.90
35445;DHT22;21562;49.476;6.086;2023-03-07T17:48:20;5.90;99.90
35445;DHT22;21562;49.476;6.086;2023-03-07T17:50:45;5.90;99.90
35445;DHT22;21562;49.476;6.086;2023-03-07T17:53:11;5.90;99.90
35445;DHT22;21562;49.476;6.086;2023-03-07T17:55:37;6.00;99.90
35445;DHT22;21562;49.476;6.086;2023-03-07T17:58:08;6.10;99.90
35445;DHT22;21562;49.476;6.086;2023-03-07T18:00:35;6.00;99.90
35445;DHT22;21562;49.476;6.086;2023-03-07T18:03:01;5.90;99.90
35445;DHT22;21562;49.476;6.086;2023-03-07T18:05:27;6.00;99.90
35445;DHT22;21562;49.476;6.086;2023-03-07T18:07:54;6.10;99.90
35445;DHT22;21562;49.476;6.086;2023-03-07T18:10:20;6.10;99.90
35445;DHT22;21562;49.476;6.086;2023-03-07T18:12:46;6.30;99.90
35445;DHT22;21562;49.476;6.086;2023-03-07T18:15:16;6.30;99.90
35445;DHT22;21562;49.476;6.086;2023-03-07T18:17:43;6.30;99.90
35445;DHT22;21562;49.476;6.086;2023-03-07T18:20:10;6.20;99.90
35445;DHT22;21562;49.476;6.086;2023-03-07T18:22:37;6.20;99.90
35445;DHT22;21562;49.476;6.086;2023-03-07T18:25:05;6.30;99.90
35445;DHT22;21562;49.476;6.086;2023-03-07T18:27:31;6.30;99.90
35445;DHT22;21562;49.476;6.086;2023-03-07T18:29:56;6.30;99.90
35445;DHT22;21562;49.476;6.086;2023-03-07T18:32:22;6.40;99.90
35445;DHT22;21562;49.476;6.086;2023-03-07T18:34:50;6.40;99.90
35445;DHT22;21562;49.476;6.086;2023-03-07T18:37:16;6.40;99.90
35445;DHT22;21562;49.476;6.086;2023-03-07T18:39:42;6.50;99.90
35445;DHT22;21562;49.476;6.086;2023-03-07T18:42:08;6.50;99.90
35445;DHT22;21562;49.476;6.086;2023-03-07T18:44:37;6.50;99.90
35445;DHT22;21562;49.476;6.086;2023-03-07T18:47:02;6.40;99.90
35445;DHT22;21562;49.476;6.086;2023-03-07T18:49:28;6.50;99.90
35445;DHT22;21562;49.476;6.086;2023-03-07T18:51:53;6.60;99.90
35445;DHT22;21562;49.476;6.086;2023-03-07T18:54:19;6.50;99.90
35445;DHT22;21562;49.476;6.086;2023-03-07T18:56:46;6.30;99.90
35445;DHT22;21562;49.476;6.086;2023-03-07T18:59:11;6.30;99.90
35445;DHT22;21562;49.476;6.086;2023-03-07T19:01:37;6.40;99.90
35445;DHT22;21562;49.476;6.086;2023-03-07T19:04:05;6.50;99.90
35445;DHT22;21562;49.476;6.086;2023-03-07T19:06:42;6.40;99.90
35445;DHT22;21562;49.476;6.086;2023-03-07T19:09:17;6.40;99.90
35445;DHT22;21562;49.476;6.086;2023-03-07T19:11:44;6.20;99.90
35445;DHT22;21562;49.476;6.086;2023-03-07T19:14:10;6.10;99.90
35445;DHT22;21562;49.476;6.086;2023-03-07T19:16:35;6.20;99.90
35445;DHT22;21562;49.476;6.086;2023-03-07T19:19:01;6.20;99.90
35445;DHT22;21562;49.476;6.086;2023-03-07T19:21:28;6.20;99.90
35445;DHT22;21562;49.476;6.086;2023-03-07T19:23:56;6.20;99.90
35445;DHT22;21562;49.476;6.086;2023-03-07T19:26:22;6.20;99.90
35445;DHT22;21562;49.476;6.086;2023-03-07T19:28:50;6.30;99.90
35445;DHT22;21562;49.476;6.086;2023-03-07T19:31:25;6.40;99.90
35445;DHT22;21562;49.476;6.086;2023-03-07T19:33:52;6.40;99.90
35445;DHT22;21562;49.476;6.086;2023-03-07T19:36:23;6.40;99.90
35445;DHT22;21562;49.476;6.086;2023-03-07T19:38:51;6.50;99.90
35445;DHT22;21562;49.476;6.086;2023-03-07T19:41:18;6.60;99.90
35445;DHT22;21562;49.476;6.086;2023-03-07T19:43:45;6.60;99.90
35445;DHT22;21562;49.476;6.086;2023-03-07T19:46:12;6.70;99.90